Time;durP1;ratioP1;P1;durP2;ratioP2;P2;SDS_P1;SDS_P2;PMS_P1;PMS_P2;Temp;Humidity;BMP_temperature;BMP_pressure;BME280_temperature;BME280_humidity;BME280_pressure;Samples;Min_cycle;Max_cycle;Signal;HPM_P1;HPM_P2
2023/06/06 00:00:20;;;;;;;26.02;23.90;;;14.50;99.90;;;;;;4996557;28;20056;-74
2023/06/06 00:02:48;;;;;;;26.23;23.85;;;14.50;99.90;;;;;;4992982;28;20046;-74
2023/06/06 00:05:16;;;;;;;26.42;24.00;;;14.40;99.90;;;;;;5060921;28;20161;-74
2023/06/06 00:07:45;;;;;;;26.98;24.45;;;14.40;99.90;;;;;;5001083;28;20112;-74
2023/06/06 00:10:14;;;;;;;26.23;24.00;;;14.30;99.90;;;;;;4993132;28;20053;-75
2023/06/06 00:12:41;;;;;;;26.65;24.27;;;14.30;99.90;;;;;;4989277;28;20514;-75
2023/06/06 00:15:10;;;;;;;25.95;23.52;;;14.30;99.90;;;;;;4988963;28;20551;-74
2023/06/06 00:17:39;;;;;;;25.40;23.27;;;14.30;99.90;;;;;;4992377;28;20042;-75
2023/06/06 00:20:06;;;;;;;26.58;24.27;;;14.30;99.90;;;;;;4988430;28;20045;-75
2023/06/06 00:22:35;;;;;;;25.33;23.02;;;14.30;99.90;;;;;;5058472;28;20065;-75
2023/06/06 00:25:03;;;;;;;25.85;23.52;;;14.30;99.90;;;;;;5006413;27;20041;-74
2023/06/06 00:27:31;;;;;;;25.73;23.48;;;14.40;99.90;;;;;;5073850;27;20037;-74
2023/06/06 00:29:59;;;;;;;27.10;24.42;;;14.40;99.90;;;;;;5009399;27;20045;-73
2023/06/06 00:32:26;;;;;;;24.80;22.70;;;14.30;99.90;;;;;;5050080;27;20103;-73
2023/06/06 00:34:56;;;;;;;25.83;23.60;;;14.30;99.90;;;;;;5070477;27;20140;-72
2023/06/06 00:37:23;;;;;;;26.40;23.20;;;14.20;99.90;;;;;;5061847;27;20091;-71
2023/06/06 00:39:50;;;;;;;25.08;23.13;;;14.30;99.90;;;;;;4991502;28;20042;-71
2023/06/06 00:42:17;;;;;;;25.45;23.27;;;14.30;99.90;;;;;;5031481;28;20034;-74
2023/06/06 00:44:44;;;;;;;26.67;24.08;;;14.20;99.90;;;;;;5007165;27;20369;-71
2023/06/06 00:47:12;;;;;;;26.27;24.17;;;14.10;99.90;;;;;;5057698;27;20033;-71
2023/06/06 00:49:40;;;;;;;26.20;23.63;;;14.10;99.90;;;;;;5059772;27;20294;-71
2023/06/06 00:52:08;;;;;;;26.83;24.42;;;14.10;99.90;;;;;;5077113;27;20046;-74
2023/06/06 00:54:36;;;;;;;27.38;24.98;;;14.00;99.90;;;;;;5003127;27;20048;-74
2023/06/06 00:57:03;;;;;;;26.80;24.30;;;14.00;99.90;;;;;;5006431;27;20056;-74
2023/06/06 00:59:30;;;;;;;26.30;24.17;;;13.90;99.90;;;;;;5069200;27;20138;-75
2023/06/06 01:01:58;;;;;;;27.25;24.48;;;14.00;99.90;;;;;;5056397;27;20408;-72
2023/06/06 01:04:26;;;;;;;26.52;24.20;;;13.90;99.90;;;;;;5045680;27;21677;-73
2023/06/06 01:06:53;;;;;;;26.90;24.60;;;13.90;99.90;;;;;;5070692;27;20301;-74
2023/06/06 01:09:20;;;;;;;27.10;24.65;;;13.90;99.90;;;;;;5064085;27;20162;-74
2023/06/06 01:12:07;;;;;;;26.98;24.38;;;13.90;99.90;;;;;;4996935;27;20334;-74
2023/06/06 01:14:58;;;;;;;27.75;25.20;;;13.90;99.90;;;;;;4996179;27;20391;-77
2023/06/06 01:17:27;;;;;;;26.73;24.42;;;13.80;99.90;;;;;;5052289;27;21364;-75
2023/06/06 01:19:57;;;;;;;25.98;23.70;;;13.80;99.90;;;;;;5059676;27;20061;-73
2023/06/06 01:22:27;;;;;;;28.27;25.55;;;13.70;99.90;;;;;;4996444;28;20058;-76
2023/06/06 01:24:55;;;;;;;28.70;25.70;;;13.70;99.90;;;;;;5059505;27;20046;-72
2023/06/06 01:27:23;;;;;;;26.65;24.20;;;13.50;99.90;;;;;;5062370;27;20036;-74
2023/06/06 01:29:50;;;;;;;26.25;23.85;;;13.60;99.90;;;;;;4999317;27;20560;-75
2023/06/06 01:32:30;;;;;;;26.88;24.52;;;13.70;99.90;;;;;;4998299;27;20497;-73
2023/06/06 01:35:14;;;;;;;26.63;24.42;;;13.80;99.90;;;;;;5057426;28;20050;-74
2023/06/06 01:38:00;;;;;;;27.52;25.02;;;13.80;99.90;;;;;;5061307;27;20056;-73
2023/06/06 01:40:30;;;;;;;27.67;25.20;;;13.80;99.90;;;;;;5054841;27;21399;-73
2023/06/06 01:42:57;;;;;;;28.70;26.08;;;13.80;99.90;;;;;;5057687;27;20052;-74
2023/06/06 01:45:27;;;;;;;26.92;24.70;;;13.60;99.90;;;;;;5077748;27;20491;-73
2023/06/06 01:47:55;;;;;;;27.30;25.13;;;13.50;99.90;;;;;;5061289;27;20458;-73
2023/06/06 01:50:22;;;;;;;27.10;24.80;;;13.30;99.90;;;;;;5058660;27;20706;-73
2023/06/06 01:52:56;;;;;;;26.75;24.40;;;13.30;99.90;;;;;;5053155;28;20041;-74
2023/06/06 01:55:22;;;;;;;28.02;25.25;;;13.30;99.90;;;;;;5046575;27;20046;-73
2023/06/06 01:57:49;;;;;;;26.77;24.67;;;13.20;99.90;;;;;;5061764;27;20567;-73
2023/06/06 02:00:19;;;;;;;26.48;24.48;;;13.10;99.90;;;;;;5053102;27;20034;-73
2023/06/06 02:02:47;;;;;;;27.20;24.80;;;13.10;99.90;;;;;;5054805;27;20037;-73
2023/06/06 02:05:14;;;;;;;27.23;24.85;;;13.00;99.90;;;;;;5072705;27;20035;-72
2023/06/06 02:07:42;;;;;;;28.55;25.83;;;12.90;99.90;;;;;;5074338;27;20045;-72
2023/06/06 02:10:10;;;;;;;27.48;25.05;;;12.80;99.90;;;;;;5056735;27;20067;-73
2023/06/06 02:12:37;;;;;;;27.58;25.17;;;12.70;99.90;;;;;;5058736;28;20069;-72
2023/06/06 02:15:05;;;;;;;27.15;24.90;;;12.60;99.90;;;;;;4997405;28;20041;-72
2023/06/06 02:17:32;;;;;;;26.33;24.23;;;12.50;99.90;;;;;;5011266;27;20051;-72
2023/06/06 02:19:59;;;;;;;27.13;24.27;;;12.50;99.90;;;;;;5043827;28;20045;-72
2023/06/06 02:22:27;;;;;;;27.05;24.67;;;12.40;99.90;;;;;;5064108;27;20046;-72
2023/06/06 02:24:54;;;;;;;28.35;25.23;;;12.40;99.90;;;;;;5045203;28;20477;-72
2023/06/06 02:27:21;;;;;;;36.95;26.15;;;12.30;99.90;;;;;;4985979;27;20140;-72
2023/06/06 02:29:48;;;;;;;29.92;27.02;;;12.20;99.90;;;;;;5069157;27;20152;-73
2023/06/06 02:32:15;;;;;;;28.20;25.65;;;12.10;99.90;;;;;;5053142;27;20521;-73
2023/06/06 02:34:42;;;;;;;28.50;26.10;;;12.10;99.90;;;;;;5064125;27;20212;-71
2023/06/06 02:37:09;;;;;;;28.73;26.05;;;12.00;99.90;;;;;;5054598;27;20069;-71
2023/06/06 02:39:37;;;;;;;26.77;24.38;;;12.10;99.90;;;;;;5053349;27;20049;-72
2023/06/06 02:42:06;;;;;;;27.73;25.17;;;12.00;99.90;;;;;;5061536;27;20567;-71
2023/06/06 02:44:33;;;;;;;26.10;23.77;;;12.10;99.90;;;;;;5058163;27;20288;-73
2023/06/06 02:47:00;;;;;;;25.98;23.67;;;12.10;99.90;;;;;;4997747;28;20040;-72
2023/06/06 02:49:27;;;;;;;27.50;25.00;;;12.20;99.90;;;;;;5056768;27;20078;-71
2023/06/06 02:51:55;;;;;;;27.35;24.90;;;12.10;99.90;;;;;;5061239;27;20038;-71
2023/06/06 02:54:22;;;;;;;25.75;23.45;;;12.10;99.90;;;;;;5064396;27;20056;-71
2023/06/06 02:56:49;;;;;;;27.90;25.15;;;12.20;99.90;;;;;;5063931;27;20478;-72
2023/06/06 02:59:16;;;;;;;27.38;24.67;;;12.20;99.90;;;;;;5075628;27;20553;-72
2023/06/06 03:01:44;;;;;;;28.58;25.45;;;12.20;99.90;;;;;;5059552;27;20049;-72
2023/06/06 03:04:13;;;;;;;26.98;24.50;;;12.20;99.90;;;;;;5087480;27;20145;-71
2023/06/06 03:06:40;;;;;;;25.45;23.17;;;12.10;99.90;;;;;;5048261;28;20042;-72
2023/06/06 03:09:09;;;;;;;26.63;24.38;;;12.00;99.90;;;;;;5054529;28;20057;-72
2023/06/06 03:11:38;;;;;;;27.05;24.75;;;11.80;99.90;;;;;;5064214;28;20045;-71
2023/06/06 03:14:05;;;;;;;27.58;25.13;;;11.70;99.90;;;;;;5066412;27;20531;-72
2023/06/06 03:16:35;;;;;;;29.77;27.05;;;11.50;99.90;;;;;;5056586;28;20470;-72
2023/06/06 03:19:03;;;;;;;27.73;25.42;;;11.40;99.90;;;;;;5061768;28;20060;-71
2023/06/06 03:21:33;;;;;;;29.13;26.30;;;11.30;99.90;;;;;;5066135;28;20372;-71
2023/06/06 03:24:00;;;;;;;28.17;25.48;;;11.20;99.90;;;;;;5045554;28;20057;-73
2023/06/06 03:26:29;;;;;;;28.10;25.52;;;11.10;99.90;;;;;;5058285;28;20049;-72
2023/06/06 03:28:59;;;;;;;28.95;26.08;;;11.10;99.90;;;;;;5068061;28;20041;-73
2023/06/06 03:31:32;;;;;;;28.10;25.60;;;10.90;99.90;;;;;;5041881;28;20150;-73
2023/06/06 03:34:00;;;;;;;29.25;26.67;;;10.90;99.90;;;;;;5045576;28;20516;-71
2023/06/06 03:36:32;;;;;;;28.75;26.38;;;10.80;99.90;;;;;;5062204;27;20293;-71
2023/06/06 03:39:03;;;;;;;28.77;26.20;;;10.70;99.90;;;;;;5058210;28;20414;-70
2023/06/06 03:41:33;;;;;;;29.23;26.33;;;10.70;99.90;;;;;;5062503;28;20043;-70
2023/06/06 03:44:01;;;;;;;27.15;24.75;;;10.70;99.90;;;;;;5078483;27;20499;-73
2023/06/06 03:46:29;;;;;;;27.63;25.02;;;10.60;99.90;;;;;;5060299;28;20054;-72
2023/06/06 03:48:56;;;;;;;26.80;24.42;;;10.60;99.90;;;;;;5065252;28;20517;-72
2023/06/06 03:51:23;;;;;;;25.65;23.48;;;10.60;99.90;;;;;;5063323;28;20061;-71
2023/06/06 03:53:49;;;;;;;26.30;24.02;;;10.60;99.90;;;;;;4991174;28;20342;-72
2023/06/06 03:56:16;;;;;;;26.65;24.23;;;10.60;99.90;;;;;;5059120;28;20049;-70
2023/06/06 03:58:43;;;;;;;26.95;24.17;;;10.60;99.90;;;;;;5058389;27;20059;-71
2023/06/06 04:01:11;;;;;;;25.70;23.50;;;10.60;99.90;;;;;;5052847;27;20045;-72
2023/06/06 04:03:38;;;;;;;25.77;23.73;;;10.60;99.90;;;;;;5004063;27;20040;-71
2023/06/06 04:06:07;;;;;;;25.80;23.70;;;10.50;99.90;;;;;;5059979;27;20050;-70
2023/06/06 04:08:37;;;;;;;27.17;24.63;;;10.40;99.90;;;;;;5019229;28;20740;-70
2023/06/06 04:11:03;;;;;;;26.80;24.50;;;10.20;99.90;;;;;;4997183;27;20387;-72
2023/06/06 04:13:30;;;;;;;28.50;25.73;;;10.30;99.90;;;;;;5077422;27;20045;-71
2023/06/06 04:15:57;;;;;;;26.40;24.00;;;10.20;99.90;;;;;;5064941;27;20369;-71
2023/06/06 04:18:26;;;;;;;26.35;24.13;;;10.30;99.90;;;;;;5061488;27;20245;-72
2023/06/06 04:20:53;;;;;;;26.70;24.70;;;10.30;99.90;;;;;;5067289;27;20046;-72
2023/06/06 04:23:20;;;;;;;26.02;23.92;;;10.30;99.90;;;;;;5071361;27;20042;-70
2023/06/06 04:25:48;;;;;;;26.98;24.88;;;10.30;99.90;;;;;;5090282;27;20066;-70
2023/06/06 04:28:19;;;;;;;26.42;24.20;;;10.50;99.90;;;;;;5084616;27;20049;-73
2023/06/06 04:30:52;;;;;;;25.67;23.67;;;10.50;99.90;;;;;;5008765;27;20592;-71
2023/06/06 04:33:19;;;;;;;27.15;24.85;;;10.60;99.90;;;;;;5091389;27;20037;-71
2023/06/06 04:35:48;;;;;;;26.83;24.40;;;10.70;99.90;;;;;;5083454;27;20077;-73
2023/06/06 04:38:20;;;;;;;28.30;25.92;;;10.80;99.90;;;;;;5061623;27;20577;-72
2023/06/06 04:40:50;;;;;;;28.77;26.08;;;11.00;99.90;;;;;;4995276;28;20485;-72
2023/06/06 04:43:38;;;;;;;28.77;26.55;;;11.10;99.90;;;;;;5001566;27;20157;-72
2023/06/06 04:46:04;;;;;;;29.27;27.05;;;11.10;99.90;;;;;;5076753;27;20041;-72
2023/06/06 04:48:31;;;;;;;28.52;26.33;;;11.20;99.90;;;;;;5072232;27;20046;-73
2023/06/06 04:50:59;;;;;;;31.50;28.73;;;11.40;99.90;;;;;;5006271;27;20382;-71
2023/06/06 04:53:26;;;;;;;29.55;26.90;;;11.50;99.90;;;;;;5064401;27;20476;-72
2023/06/06 04:55:55;;;;;;;28.58;26.35;;;11.60;99.90;;;;;;5064587;27;20046;-71
2023/06/06 04:58:22;;;;;;;28.20;26.10;;;11.70;99.90;;;;;;5058498;27;21311;-72
2023/06/06 05:00:49;;;;;;;28.70;26.27;;;11.90;99.90;;;;;;5059536;27;20405;-72
2023/06/06 05:03:19;;;;;;;28.30;25.88;;;11.90;99.90;;;;;;5058243;27;20095;-73
2023/06/06 05:05:48;;;;;;;27.67;25.50;;;12.00;99.90;;;;;;5060558;27;20086;-72
2023/06/06 05:08:15;;;;;;;28.63;26.27;;;12.20;99.90;;;;;;5000900;27;20042;-71
2023/06/06 05:10:42;;;;;;;30.52;27.95;;;12.30;99.90;;;;;;5057290;27;20037;-73
2023/06/06 05:13:09;;;;;;;31.02;28.42;;;12.60;99.90;;;;;;5001907;27;20455;-72
2023/06/06 05:15:36;;;;;;;29.95;27.65;;;12.90;99.90;;;;;;5075747;27;20087;-72
2023/06/06 05:18:03;;;;;;;31.38;28.63;;;13.20;99.90;;;;;;5064383;27;20512;-72
2023/06/06 05:20:30;;;;;;;32.05;29.40;;;13.60;99.90;;;;;;4987207;28;20058;-74
2023/06/06 05:22:57;;;;;;;32.85;30.25;;;13.80;99.90;;;;;;5056435;28;20272;-72
2023/06/06 05:25:23;;;;;;;31.85;29.27;;;14.10;99.90;;;;;;4989782;27;20095;-72
2023/06/06 05:27:51;;;;;;;31.58;28.88;;;14.50;99.90;;;;;;5065832;27;20061;-72
2023/06/06 05:30:18;;;;;;;32.17;29.23;;;14.70;99.90;;;;;;4988048;27;20180;-73
2023/06/06 05:32:45;;;;;;;31.88;29.35;;;14.90;99.90;;;;;;4993482;27;20048;-73
2023/06/06 05:35:12;;;;;;;31.70;29.17;;;15.10;99.90;;;;;;5063924;27;20049;-73
2023/06/06 05:37:41;;;;;;;31.85;29.13;;;15.50;99.90;;;;;;5054024;27;20107;-74
2023/06/06 05:40:09;;;;;;;31.45;28.85;;;15.70;99.90;;;;;;5012346;27;20456;-73
2023/06/06 05:42:37;;;;;;;31.13;28.63;;;16.10;99.90;;;;;;4997307;28;20117;-74
2023/06/06 05:45:05;;;;;;;31.75;29.08;;;16.40;99.90;;;;;;5054522;28;20048;-74
2023/06/06 05:47:32;;;;;;;32.08;29.38;;;16.60;99.90;;;;;;5076351;27;20089;-73
2023/06/06 05:49:58;;;;;;;32.40;29.48;;;17.00;99.90;;;;;;5001341;27;20092;-73
2023/06/06 05:52:26;;;;;;;32.53;29.77;;;17.10;99.90;;;;;;4987623;27;20444;-74
2023/06/06 05:55:04;;;;;;;33.72;30.83;;;17.40;99.90;;;;;;5055615;27;20403;-73
2023/06/06 05:57:31;;;;;;;33.88;30.98;;;17.50;99.90;;;;;;5069137;27;20053;-73
2023/06/06 06:00:00;;;;;;;33.50;30.80;;;17.70;99.90;;;;;;4989528;28;20498;-74
2023/06/06 06:02:38;;;;;;;33.63;31.02;;;17.60;99.90;;;;;;4995850;27;20045;-73
2023/06/06 06:05:06;;;;;;;34.50;31.52;;;17.40;99.90;;;;;;5005316;27;20120;-73
2023/06/06 06:07:33;;;;;;;36.00;32.90;;;17.40;99.90;;;;;;5000531;27;20052;-73
2023/06/06 06:10:00;;;;;;;36.08;32.78;;;17.60;99.90;;;;;;5006915;27;20050;-74
2023/06/06 06:12:26;;;;;;;37.28;33.75;;;17.80;99.90;;;;;;5006429;27;20096;-74
2023/06/06 06:14:53;;;;;;;37.33;34.35;;;17.80;99.90;;;;;;5041477;28;20045;-73
2023/06/06 06:17:20;;;;;;;38.60;35.38;;;17.90;99.90;;;;;;5007936;27;20311;-72
2023/06/06 06:19:47;;;;;;;38.72;35.30;;;18.30;99.90;;;;;;4986253;28;20061;-72
2023/06/06 06:22:14;;;;;;;38.05;34.85;;;18.50;99.90;;;;;;4988345;27;20525;-73
2023/06/06 06:24:40;;;;;;;37.08;33.80;;;18.60;99.90;;;;;;4985658;27;20045;-73
2023/06/06 06:27:07;;;;;;;39.05;35.78;;;18.50;99.90;;;;;;5070642;27;20533;-74
2023/06/06 06:29:34;;;;;;;40.13;36.92;;;18.60;99.90;;;;;;4993550;27;20044;-72
2023/06/06 06:32:01;;;;;;;36.60;33.50;;;18.60;99.90;;;;;;5081978;27;20071;-73
2023/06/06 06:34:28;;;;;;;39.83;36.25;;;18.40;99.90;;;;;;5056265;27;20264;-71
2023/06/06 06:36:54;;;;;;;38.20;34.97;;;18.20;99.90;;;;;;5005908;27;20417;-73
2023/06/06 06:39:21;;;;;;;39.03;36.03;;;17.90;99.90;;;;;;4998061;28;20054;-72
2023/06/06 06:41:48;;;;;;;39.10;36.08;;;17.80;99.90;;;;;;4993130;27;20364;-73
2023/06/06 06:44:15;;;;;;;38.67;35.67;;;17.60;99.90;;;;;;5064126;27;20053;-72
2023/06/06 06:46:41;;;;;;;36.35;33.35;;;17.40;99.90;;;;;;4997873;28;20068;-71
2023/06/06 06:49:15;;;;;;;37.78;34.22;;;17.40;99.90;;;;;;5003332;27;20061;-73
2023/06/06 06:51:42;;;;;;;38.00;34.90;;;17.20;99.90;;;;;;4982916;28;20111;-74
2023/06/06 06:54:13;;;;;;;37.70;34.47;;;17.10;99.90;;;;;;5064209;27;20106;-74
2023/06/06 06:56:42;;;;;;;38.83;35.17;;;17.10;99.90;;;;;;5058494;27;20065;-72
2023/06/06 06:59:09;;;;;;;37.03;33.75;;;17.20;99.90;;;;;;5052445;28;20053;-73
2023/06/06 07:01:39;;;;;;;34.67;31.90;;;17.20;99.90;;;;;;5069179;27;20074;-74
2023/06/06 07:04:06;;;;;;;38.17;34.40;;;17.30;99.90;;;;;;4999944;27;20124;-74
2023/06/06 07:06:34;;;;;;;36.03;33.10;;;17.20;99.90;;;;;;4994362;28;20049;-74
2023/06/06 07:09:03;;;;;;;36.22;33.00;;;17.10;99.90;;;;;;5058586;27;20528;-72
2023/06/06 07:11:30;;;;;;;37.85;34.63;;;17.10;99.90;;;;;;5057294;27;20429;-73
2023/06/06 07:13:56;;;;;;;37.30;34.15;;;17.20;99.90;;;;;;5055762;28;20046;-73
2023/06/06 07:16:25;;;;;;;36.33;33.20;;;17.30;99.90;;;;;;5003836;27;20045;-73
2023/06/06 07:18:53;;;;;;;34.17;31.35;;;17.30;99.90;;;;;;5063141;27;20544;-73
2023/06/06 07:21:21;;;;;;;34.95;31.90;;;17.30;99.90;;;;;;4993415;28;20038;-74
2023/06/06 07:23:49;;;;;;;35.53;32.45;;;17.50;99.90;;;;;;4995009;28;20049;-73
2023/06/06 07:26:16;;;;;;;35.35;32.65;;;17.70;99.90;;;;;;4989824;28;20199;-72
2023/06/06 07:28:45;;;;;;;35.05;32.13;;;17.90;99.90;;;;;;4992050;28;20127;-71
2023/06/06 07:31:11;;;;;;;35.75;32.85;;;18.10;99.90;;;;;;4999835;27;20041;-72
2023/06/06 07:33:39;;;;;;;35.85;33.15;;;18.30;99.90;;;;;;4986982;28;20655;-73
2023/06/06 07:36:07;;;;;;;37.15;34.13;;;18.10;99.90;;;;;;4992922;28;20232;-73
2023/06/06 07:38:34;;;;;;;38.22;35.47;;;18.30;99.90;;;;;;4991288;27;20107;-74
2023/06/06 07:41:02;;;;;;;38.00;34.92;;;18.80;99.90;;;;;;5058468;28;20042;-73
2023/06/06 07:43:29;;;;;;;35.65;33.15;;;19.30;99.90;;;;;;5004915;27;20057;-74
2023/06/06 07:45:56;;;;;;;38.88;35.78;;;19.70;99.90;;;;;;5001383;27;20033;-73
2023/06/06 07:48:23;;;;;;;35.80;32.78;;;19.80;99.90;;;;;;5008912;27;20038;-72
2023/06/06 07:50:50;;;;;;;37.67;34.92;;;20.10;99.90;;;;;;4990928;27;20053;-73
2023/06/06 07:53:18;;;;;;;36.08;33.33;;;20.50;99.90;;;;;;5010852;27;20050;-73
2023/06/06 07:55:45;;;;;;;34.47;31.85;;;20.90;99.90;;;;;;4992591;27;20521;-73
2023/06/06 07:58:12;;;;;;;36.53;33.88;;;20.90;99.90;;;;;;4992466;28;20133;-73
2023/06/06 08:00:40;;;;;;;36.50;33.75;;;20.80;99.90;;;;;;4992217;28;20037;-72
2023/06/06 08:03:07;;;;;;;40.75;37.83;;;20.90;99.90;;;;;;4995216;27;20706;-73
2023/06/06 08:05:36;;;;;;;40.80;37.92;;;21.20;99.90;;;;;;4988992;28;20113;-74
2023/06/06 08:08:05;;;;;;;40.35;37.42;;;21.60;99.90;;;;;;5066596;27;20038;-74
2023/06/06 08:10:33;;;;;;;39.05;36.35;;;21.80;99.90;;;;;;4985776;28;20033;-74
2023/06/06 08:13:00;;;;;;;39.97;36.97;;;22.10;99.90;;;;;;5006354;27;20056;-74
2023/06/06 08:15:27;;;;;;;39.97;37.38;;;22.20;99.90;;;;;;5058025;27;20064;-74
2023/06/06 08:17:54;;;;;;;40.30;37.47;;;22.50;99.90;;;;;;5063826;27;20045;-74
2023/06/06 08:20:21;;;;;;;41.55;38.70;;;22.80;99.90;;;;;;5060442;27;20048;-74
2023/06/06 08:22:51;;;;;;;43.38;40.28;;;23.10;99.90;;;;;;5060941;27;20067;-77
2023/06/06 08:25:18;;;;;;;43.95;40.95;;;23.50;99.90;;;;;;4990853;28;20100;-74
2023/06/06 08:27:45;;;;;;;42.40;39.60;;;23.50;99.90;;;;;;5053381;27;20042;-75
2023/06/06 08:30:12;;;;;;;42.95;39.83;;;23.90;99.90;;;;;;5004577;27;20588;-74
2023/06/06 08:32:39;;;;;;;44.63;41.40;;;24.10;99.90;;;;;;5064457;27;20053;-74
2023/06/06 08:35:06;;;;;;;43.85;40.85;;;23.80;99.90;;;;;;4991099;27;20038;-73
2023/06/06 08:37:33;;;;;;;44.53;41.67;;;23.80;99.90;;;;;;5002370;27;20038;-73
2023/06/06 08:40:00;;;;;;;45.83;42.80;;;23.90;99.90;;;;;;4998756;27;20575;-72
2023/06/06 08:42:30;;;;;;;43.83;41.03;;;24.00;99.90;;;;;;4991232;27;20048;-73
2023/06/06 08:44:59;;;;;;;44.17;41.15;;;24.20;99.90;;;;;;5060609;27;20042;-73
2023/06/06 08:47:26;;;;;;;46.38;43.08;;;24.40;99.90;;;;;;4995348;27;20034;-72
2023/06/06 08:49:54;;;;;;;46.95;43.75;;;24.50;99.90;;;;;;4989584;27;20198;-74
2023/06/06 08:52:23;;;;;;;48.08;44.97;;;24.60;99.90;;;;;;4999839;27;20086;-75
2023/06/06 08:54:50;;;;;;;45.03;42.03;;;24.50;99.90;;;;;;4987826;28;20748;-73
2023/06/06 08:57:19;;;;;;;48.58;44.95;;;24.60;99.90;;;;;;4995480;27;20041;-74
2023/06/06 08:59:47;;;;;;;46.42;43.42;;;24.90;99.90;;;;;;5064856;27;20475;-73
2023/06/06 09:02:14;;;;;;;47.13;44.08;;;24.90;99.90;;;;;;5019914;27;20057;-74
2023/06/06 09:04:42;;;;;;;46.75;43.60;;;24.90;99.90;;;;;;5038108;28;20052;-73
2023/06/06 09:07:12;;;;;;;47.33;44.13;;;25.20;99.90;;;;;;4994025;28;20041;-73
2023/06/06 09:09:42;;;;;;;47.72;44.30;;;25.20;99.90;;;;;;5065012;27;20513;-77
2023/06/06 09:12:09;;;;;;;49.42;46.45;;;24.80;99.90;;;;;;5054102;28;20334;-73
2023/06/06 09:14:36;;;;;;;49.72;46.40;;;24.40;99.90;;;;;;4991056;28;20046;-73
2023/06/06 09:17:04;;;;;;;53.28;49.83;;;24.10;99.90;;;;;;5065286;27;20041;-74
2023/06/06 09:19:31;;;;;;;51.47;47.90;;;23.80;99.90;;;;;;4988699;28;20082;-76
2023/06/06 09:22:00;;;;;;;49.47;46.17;;;23.10;99.90;;;;;;5004808;27;20495;-77
2023/06/06 09:24:28;;;;;;;51.67;48.38;;;23.20;99.90;;;;;;5067105;27;20042;-73
2023/06/06 09:26:55;;;;;;;49.35;45.70;;;23.00;99.90;;;;;;4990308;27;20041;-73
2023/06/06 09:29:24;;;;;;;50.72;47.28;;;23.20;99.90;;;;;;5004859;27;20040;-76
2023/06/06 09:31:51;;;;;;;48.72;45.55;;;23.50;99.90;;;;;;5060931;27;20472;-76
2023/06/06 09:34:24;;;;;;;48.85;45.47;;;23.80;99.90;;;;;;5087307;27;20144;-77
2023/06/06 09:36:53;;;;;;;48.58;44.97;;;23.70;99.90;;;;;;5002118;27;20533;-76
2023/06/06 09:39:20;;;;;;;48.47;45.25;;;23.20;99.90;;;;;;5051538;28;20038;-77
2023/06/06 09:41:48;;;;;;;49.67;46.33;;;23.30;99.90;;;;;;4999330;27;20114;-77
2023/06/06 09:44:26;;;;;;;48.50;44.97;;;23.20;99.90;;;;;;5069601;27;20323;-76
2023/06/06 09:47:01;;;;;;;50.97;47.85;;;22.90;99.90;;;;;;4998265;28;20066;-75
2023/06/06 09:49:32;;;;;;;52.08;48.58;;;22.90;99.90;;;;;;5060741;27;20050;-74
2023/06/06 09:51:59;;;;;;;48.53;45.20;;;23.00;99.90;;;;;;5090399;27;20133;-74
2023/06/06 09:54:26;;;;;;;47.13;43.67;;;23.10;99.90;;;;;;5042194;28;20041;-77
2023/06/06 09:56:55;;;;;;;45.47;42.47;;;23.20;99.90;;;;;;5010483;27;20049;-73
2023/06/06 09:59:26;;;;;;;44.20;41.10;;;22.70;99.90;;;;;;5065243;27;20097;-76
2023/06/06 10:02:05;;;;;;;45.20;42.17;;;23.30;99.90;;;;;;5057501;27;20556;-75
2023/06/06 10:04:33;;;;;;;46.28;43.17;;;23.30;99.90;;;;;;4999351;27;20476;-75
2023/06/06 10:07:02;;;;;;;47.13;43.67;;;23.00;99.90;;;;;;5069224;27;20153;-75
2023/06/06 10:09:30;;;;;;;46.90;43.20;;;22.90;99.90;;;;;;5056451;27;20046;-76
2023/06/06 10:11:59;;;;;;;43.65;40.72;;;22.70;99.90;;;;;;5062712;27;20608;-76
2023/06/06 10:14:29;;;;;;;43.40;40.17;;;22.30;99.90;;;;;;5073004;27;20046;-76
2023/06/06 10:16:56;;;;;;;46.15;42.67;;;22.20;99.90;;;;;;5065096;27;20073;-76
2023/06/06 10:19:25;;;;;;;45.60;42.40;;;22.00;99.90;;;;;;5074611;27;20325;-74
2023/06/06 10:21:52;;;;;;;43.50;40.50;;;22.30;99.90;;;;;;5060023;27;20045;-74
2023/06/06 10:24:19;;;;;;;44.63;41.45;;;22.70;99.90;;;;;;5069541;27;20210;-75
2023/06/06 10:26:57;;;;;;;43.50;40.08;;;22.90;99.90;;;;;;5072783;27;20053;-73
2023/06/06 10:29:37;;;;;;;44.25;40.90;;;22.30;99.90;;;;;;5017706;27;20061;-76
2023/06/06 10:32:12;;;;;;;44.35;40.95;;;22.20;99.90;;;;;;5077880;27;20049;-75
2023/06/06 10:34:42;;;;;;;45.80;42.47;;;22.40;99.90;;;;;;5052856;27;20050;-73
2023/06/06 10:37:16;;;;;;;44.00;40.67;;;22.50;99.90;;;;;;4993319;27;20050;-74
2023/06/06 10:39:47;;;;;;;46.60;43.28;;;22.90;99.90;;;;;;4991402;27;20053;-75
2023/06/06 10:42:15;;;;;;;46.50;43.22;;;23.00;99.90;;;;;;5007390;27;20128;-77
2023/06/06 10:44:45;;;;;;;47.17;43.72;;;22.80;99.90;;;;;;5062340;27;20050;-78
2023/06/06 10:47:21;;;;;;;46.92;43.72;;;22.30;99.90;;;;;;4990608;27;20046;-73
2023/06/06 10:50:07;;;;;;;48.25;45.10;;;22.20;99.90;;;;;;4996915;28;20040;-75
2023/06/06 10:52:52;;;;;;;45.85;42.65;;;22.40;99.90;;;;;;5079462;27;20050;-75
2023/06/06 10:55:25;;;;;;;43.95;40.95;;;22.70;99.90;;;;;;5068198;27;20099;-76
2023/06/06 10:57:54;;;;;;;44.65;40.88;;;22.30;99.90;;;;;;5053477;27;20065;-78
2023/06/06 11:00:23;;;;;;;45.13;41.80;;;21.40;99.90;;;;;;4989607;28;20260;-74
2023/06/06 11:02:51;;;;;;;43.55;40.42;;;21.50;99.90;;;;;;5054385;27;20034;-73
2023/06/06 11:05:21;;;;;;;41.83;38.55;;;21.80;99.90;;;;;;4993908;28;20046;-76
2023/06/06 11:07:52;;;;;;;43.13;39.70;;;22.60;99.90;;;;;;5003966;27;20038;-76
2023/06/06 11:10:22;;;;;;;42.75;39.65;;;23.00;99.90;;;;;;4997319;27;20061;-74
2023/06/06 11:12:52;;;;;;;43.08;39.60;;;22.40;99.90;;;;;;4995510;28;20052;-73
2023/06/06 11:15:31;;;;;;;42.15;38.95;;;22.20;99.90;;;;;;5003153;27;20102;-76
2023/06/06 11:18:03;;;;;;;42.85;39.55;;;22.30;99.90;;;;;;4992678;28;20046;-76
2023/06/06 11:20:40;;;;;;;42.42;39.40;;;22.40;99.90;;;;;;5063392;27;20050;-73
2023/06/06 11:23:11;;;;;;;41.42;38.45;;;22.20;99.90;;;;;;4989846;28;20704;-73
2023/06/06 11:25:38;;;;;;;41.47;38.53;;;22.60;99.90;;;;;;4989162;27;20065;-74
2023/06/06 11:28:05;;;;;;;44.40;41.33;;;22.40;99.90;;;;;;4992448;28;20108;-74
2023/06/06 11:30:36;;;;;;;42.80;39.47;;;22.00;99.90;;;;;;5059832;27;20038;-76
2023/06/06 11:33:11;;;;;;;42.05;39.05;;;21.70;99.90;;;;;;4990646;28;20387;-73
2023/06/06 11:35:39;;;;;;;43.67;40.58;;;21.60;99.90;;;;;;5078559;28;20046;-75
2023/06/06 11:38:06;;;;;;;44.05;40.95;;;22.00;99.90;;;;;;5015353;28;20038;-73
2023/06/06 11:40:33;;;;;;;43.55;40.08;;;22.20;99.90;;;;;;5051837;27;20046;-74
2023/06/06 11:43:00;;;;;;;41.42;38.33;;;22.60;99.90;;;;;;4994615;28;20045;-73
2023/06/06 11:45:27;;;;;;;40.95;37.80;;;22.60;99.90;;;;;;5007501;28;20237;-74
2023/06/06 11:47:54;;;;;;;42.75;39.53;;;22.90;99.90;;;;;;4991154;28;20537;-74
2023/06/06 11:50:41;;;;;;;40.67;37.67;;;22.80;99.90;;;;;;5059100;28;20045;-75
2023/06/06 11:53:10;;;;;;;43.22;39.78;;;22.80;99.90;;;;;;5052257;28;20033;-75
2023/06/06 11:55:38;;;;;;;42.03;38.90;;;22.50;99.90;;;;;;5057096;28;20110;-75
2023/06/06 11:58:05;;;;;;;44.08;40.65;;;22.50;99.90;;;;;;4998160;28;20045;-74
2023/06/06 12:00:31;;;;;;;43.38;40.28;;;22.40;99.90;;;;;;5056470;28;20062;-77
2023/06/06 12:02:59;;;;;;;42.45;39.45;;;22.60;99.90;;;;;;4989640;28;20463;-73
2023/06/06 12:05:26;;;;;;;43.05;39.83;;;22.40;99.90;;;;;;5049630;27;20129;-74
2023/06/06 12:07:58;;;;;;;42.15;39.15;;;22.70;99.90;;;;;;4995705;28;20190;-75
2023/06/06 12:10:30;;;;;;;43.50;40.22;;;22.80;99.90;;;;;;5057875;27;20549;-76
2023/06/06 12:12:58;;;;;;;42.53;39.53;;;22.90;99.90;;;;;;5077167;27;20107;-76
2023/06/06 12:15:44;;;;;;;40.97;38.08;;;23.20;99.90;;;;;;5060601;27;20152;-76
2023/06/06 12:18:12;;;;;;;43.50;40.42;;;23.00;99.90;;;;;;4994303;28;20045;-75
2023/06/06 12:20:43;;;;;;;41.05;37.95;;;23.40;99.90;;;;;;5018774;27;20057;-75
2023/06/06 12:23:10;;;;;;;42.00;38.83;;;23.70;99.90;;;;;;5049241;28;20651;-74
2023/06/06 12:25:37;;;;;;;41.67;38.67;;;23.50;99.90;;;;;;5059852;27;20042;-74
2023/06/06 12:28:08;;;;;;;39.08;36.08;;;23.50;99.90;;;;;;5066037;27;20060;-72
2023/06/06 12:30:36;;;;;;;42.63;39.50;;;23.50;99.90;;;;;;4993378;27;20057;-73
2023/06/06 12:33:03;;;;;;;42.03;38.58;;;23.80;99.90;;;;;;5007908;27;20527;-77
2023/06/06 12:35:30;;;;;;;42.95;39.55;;;23.90;99.90;;;;;;5068369;27;20144;-77